Topi Weather



Topi's Current Weather

Temprature 28.16o clear sky

clear sky

Rain: 0 %

Min Temprature28.16o
Max Temprature28.16o
Humidity32
Wind Speed3.02 m/h
Sun Rise05:02:44
Sun Set19:10:12
Current Time: 24-May-2022 08:51:06
Lat/Lon: 34.0704, 72.6236




Topi's Geo Location



Topi's Weather Forecast

Time Overall Temp Min Temp Max Temp Humidity Wind Speed Rain
24-May-2022 (Tue)
11:00:00 clear sky 28.170 28.170 31.030 32 3.42 m/h 0 %
14:00:00 clear sky 31.380 31.380 33.700 25 3.71 m/h 0 %
17:00:00 clear sky 33.720 33.720 33.720 19 1.61 m/h 0 %
20:00:00 clear sky 29.220 29.220 29.220 25 1.64 m/h 0 %
23:00:00 clear sky 27.010 27.010 27.010 29 1.83 m/h 0 %
25-May-2022 (Wed)
02:00:00 clear sky 25.060 25.060 25.060 33 2.97 m/h 0 %
05:00:00 clear sky 23.740 23.740 23.740 35 3.1 m/h 0 %
08:00:00 clear sky 30.450 30.450 30.450 24 1.35 m/h 0 %
11:00:00 clear sky 35.430 35.430 35.430 18 3.51 m/h 0 %
14:00:00 clear sky 37.620 37.620 37.620 15 3.01 m/h 0 %
17:00:00 clear sky 37.790 37.790 37.790 14 1.38 m/h 0 %
20:00:00 clear sky 32.450 32.450 32.450 19 1.45 m/h 0 %
23:00:00 clear sky 29.970 29.970 29.970 22 2.47 m/h 0 %
26-May-2022 (Thu)
02:00:00 clear sky 27.750 27.750 27.750 26 2.78 m/h 0 %
05:00:00 clear sky 26.390 26.390 26.390 28 2.89 m/h 0 %
08:00:00 clear sky 33.330 33.330 33.330 19 0.7 m/h 0 %
11:00:00 clear sky 38.490 38.490 38.490 14 3.14 m/h 0 %
14:00:00 clear sky 41.140 41.140 41.140 12 3.3 m/h 0 %
17:00:00 clear sky 41.430 41.430 41.430 9 0.92 m/h 0 %
20:00:00 clear sky 35.000 35.000 35.000 12 1.56 m/h 0 %
23:00:00 clear sky 31.170 31.170 31.170 19 3.23 m/h 0 %
27-May-2022 (Fri)
02:00:00 clear sky 29.120 29.120 29.120 25 3.91 m/h 0 %
05:00:00 clear sky 27.840 27.840 27.840 28 3.24 m/h 0 %
08:00:00 clear sky 35.050 35.050 35.050 18 0.33 m/h 0 %
11:00:00 clear sky 40.970 40.970 40.970 11 3.35 m/h 0 %
14:00:00 clear sky 43.580 43.580 43.580 9 3.73 m/h 0 %
17:00:00 clear sky 43.700 43.700 43.700 8 2.81 m/h 0 %
20:00:00 clear sky 36.950 36.950 36.950 12 1.04 m/h 0 %
23:00:00 few clouds 33.550 33.550 33.550 14 3.44 m/h 0 %
28-May-2022 (Sat)
02:00:00 clear sky 30.190 30.190 30.190 20 2.96 m/h 0 %
05:00:00 scattered clouds 28.790 28.790 28.790 23 1.17 m/h 0 %
08:00:00 light rain 34.340 34.340 34.340 18 2.33 m/h 11 %
11:00:00 scattered clouds 40.780 40.780 40.780 13 3.2 m/h 0 %
14:00:00 clear sky 44.050 44.050 44.050 10 3.85 m/h 0 %
17:00:00 few clouds 39.180 39.180 39.180 17 9.53 m/h 0 %
20:00:00 broken clouds 32.730 32.730 32.730 27 5.42 m/h 0 %
23:00:00 broken clouds 30.700 30.700 30.700 31 4.33 m/h 0 %
29-May-2022 (Sun)
02:00:00 overcast clouds 28.820 28.820 28.820 33 2.99 m/h 0 %
05:00:00 overcast clouds 27.310 27.310 27.310 34 2.61 m/h 0 %
08:00:00 light rain 32.500 32.500 32.500 27 1.69 m/h 39 %

Famous Cities (61)